createdAt,value
2018-06-25T00:01:08.077Z,9.50
2018-06-25T00:03:36.526Z,8.97
2018-06-25T00:06:04.916Z,9.13
2018-06-25T00:08:33.334Z,9.40
2018-06-25T00:11:01.794Z,8.63
2018-06-25T00:13:30.208Z,8.90
2018-06-25T00:15:58.689Z,8.53
2018-06-25T00:18:27.055Z,7.17
2018-06-25T00:20:55.498Z,7.30
2018-06-25T00:23:23.870Z,7.57
2018-06-25T00:25:52.312Z,7.20
2018-06-25T00:28:20.662Z,7.63
2018-06-25T00:30:49.379Z,6.67
2018-06-25T00:33:17.755Z,7.57
2018-06-25T00:35:46.447Z,6.63
2018-06-25T00:38:14.898Z,7.30
2018-06-25T00:40:43.208Z,7.87
2018-06-25T00:43:12.760Z,7.00
2018-06-25T00:45:41.667Z,7.33
2018-06-25T00:48:10.093Z,6.77
2018-06-25T00:50:38.485Z,7.33
2018-06-25T00:53:06.955Z,7.10
2018-06-25T00:55:35.376Z,6.20
2018-06-25T00:58:03.701Z,6.73
2018-06-25T01:00:32.150Z,6.27
2018-06-25T01:03:00.615Z,5.80
2018-06-25T01:05:29.004Z,6.63
2018-06-25T01:07:57.373Z,7.20
2018-06-25T01:10:25.864Z,6.90
2018-06-25T01:12:54.359Z,6.83
2018-06-25T01:15:22.737Z,6.27
2018-06-25T01:17:51.100Z,7.20
2018-06-25T01:20:19.465Z,6.33
2018-06-25T01:22:48.136Z,7.23
2018-06-25T01:25:16.512Z,6.73
2018-06-25T01:27:44.938Z,6.67
2018-06-25T01:30:13.333Z,7.60
2018-06-25T01:32:41.812Z,8.30
2018-06-25T01:35:10.269Z,7.87
2018-06-25T01:37:38.689Z,7.83
2018-06-25T01:40:07.100Z,7.57
2018-06-25T01:42:35.470Z,7.23
2018-06-25T01:45:03.995Z,8.00
2018-06-25T01:47:32.362Z,8.23
2018-06-25T01:50:00.796Z,7.80
2018-06-25T01:52:29.268Z,8.07
2018-06-25T01:54:57.619Z,7.63
2018-06-25T01:57:26.049Z,8.40
2018-06-25T01:59:54.789Z,7.97
2018-06-25T02:02:23.257Z,8.23
2018-06-25T02:04:52.310Z,8.13
2018-06-25T02:07:20.864Z,8.17
2018-06-25T02:09:49.591Z,8.13
2018-06-25T02:12:17.933Z,8.27
2018-06-25T02:14:46.314Z,7.93
2018-06-25T02:17:14.749Z,7.70
2018-06-25T02:19:43.191Z,7.90
2018-06-25T02:22:11.573Z,7.47
2018-06-25T02:24:39.989Z,8.50
2018-06-25T02:27:08.392Z,8.67
2018-06-25T02:29:36.798Z,7.77
2018-06-25T02:32:05.499Z,8.17
2018-06-25T02:34:34.078Z,7.30
2018-06-25T02:37:02.979Z,7.30
2018-06-25T02:39:31.489Z,8.47
2018-06-25T02:41:59.807Z,7.80
2018-06-25T02:44:28.460Z,7.87
2018-06-25T02:46:56.917Z,7.97
2018-06-25T02:49:25.379Z,9.03
2018-06-25T02:51:53.896Z,8.40
2018-06-25T02:54:22.290Z,7.50
2018-06-25T02:56:50.888Z,8.17
2018-06-25T02:59:19.411Z,8.03
2018-06-25T03:01:47.758Z,8.93
2018-06-25T03:04:16.507Z,8.47
2018-06-25T03:06:44.663Z,9.17
2018-06-25T03:09:13.051Z,8.90
2018-06-25T03:11:41.467Z,9.37
2018-06-25T03:14:09.895Z,8.23
2018-06-25T03:16:38.321Z,9.30
2018-06-25T03:19:06.924Z,8.47
2018-06-25T03:21:35.361Z,8.30
2018-06-25T03:24:03.798Z,9.03
2018-06-25T03:26:32.246Z,8.87
2018-06-25T03:29:00.698Z,8.77
2018-06-25T03:31:29.042Z,8.77
2018-06-25T03:36:39.569Z,8.13
2018-06-25T03:39:09.574Z,8.33
2018-06-25T03:41:37.935Z,20.60
2018-06-25T03:44:06.297Z,7.90
2018-06-25T03:46:35.089Z,9.20
2018-06-25T03:49:03.140Z,8.27
2018-06-25T03:51:31.697Z,8.70
2018-06-25T03:54:00.090Z,9.03
2018-06-25T03:56:28.495Z,8.27
2018-06-25T03:58:56.855Z,8.50
2018-06-25T04:01:25.307Z,8.50
2018-06-25T04:03:53.719Z,8.90
2018-06-25T04:06:22.124Z,8.80
2018-06-25T04:08:50.844Z,9.20
2018-06-25T04:11:19.250Z,8.33
2018-06-25T04:13:47.660Z,9.07
2018-06-25T04:16:16.093Z,9.57
2018-06-25T04:18:48.342Z,8.40
2018-06-25T04:21:16.705Z,8.97
2018-06-25T04:23:45.129Z,8.53
2018-06-25T04:26:13.514Z,8.70
2018-06-25T04:28:42.000Z,7.90
2018-06-25T04:31:10.361Z,7.97
2018-06-25T04:33:39.100Z,8.00
2018-06-25T04:36:07.550Z,7.47
2018-06-25T04:38:37.615Z,8.00
2018-06-25T04:41:06.144Z,7.80
2018-06-25T04:43:34.727Z,8.63
2018-06-25T04:46:03.381Z,7.13
2018-06-25T04:48:31.760Z,6.60
2018-06-25T04:51:00.204Z,6.57
2018-06-25T04:53:28.584Z,6.20
2018-06-25T04:55:56.722Z,7.53
2018-06-25T04:58:25.140Z,6.77
2018-06-25T05:00:53.826Z,7.77
2018-06-25T05:03:22.241Z,7.67
2018-06-25T05:05:50.682Z,7.67
2018-06-25T05:08:19.061Z,7.80
2018-06-25T05:10:47.468Z,6.57
2018-06-25T05:13:15.897Z,7.20
2018-06-25T05:15:44.320Z,7.00
2018-06-25T05:18:13.695Z,7.77
2018-06-25T05:20:42.074Z,7.43
2018-06-25T05:23:10.472Z,6.77
2018-06-25T05:25:38.824Z,7.00
2018-06-25T05:28:07.520Z,7.03
2018-06-25T05:30:35.960Z,6.73
2018-06-25T05:33:04.496Z,6.00
2018-06-25T05:35:32.986Z,5.90
2018-06-25T05:38:01.450Z,6.43
2018-06-25T05:40:29.869Z,6.90
2018-06-25T05:42:58.741Z,6.47
2018-06-25T05:45:27.153Z,6.30
2018-06-25T05:47:56.109Z,7.10
2018-06-25T05:50:24.542Z,6.80
2018-06-25T05:52:52.964Z,6.87
2018-06-25T05:55:21.334Z,7.47
2018-06-25T05:57:49.774Z,6.30
2018-06-25T06:00:18.327Z,7.13
2018-06-25T06:02:46.841Z,6.20
2018-06-25T06:05:15.269Z,6.60
2018-06-25T06:07:43.366Z,6.97
2018-06-25T06:10:12.114Z,6.93
2018-06-25T06:12:40.572Z,7.97
2018-06-25T06:15:08.993Z,6.70
2018-06-25T06:17:37.464Z,6.50
2018-06-25T06:20:06.022Z,6.90
2018-06-25T06:22:34.339Z,6.30
2018-06-25T06:25:02.738Z,6.37
2018-06-25T06:27:31.080Z,6.80
2018-06-25T06:29:59.854Z,6.60
2018-06-25T06:32:28.282Z,6.60
2018-06-25T06:34:56.688Z,6.13
2018-06-25T06:37:25.188Z,6.40
2018-06-25T06:39:53.578Z,7.33
2018-06-25T06:42:22.013Z,5.93
2018-06-25T06:44:50.352Z,6.10
2018-06-25T06:47:18.681Z,6.07
2018-06-25T06:49:47.307Z,6.33
2018-06-25T06:52:18.897Z,6.30
2018-06-25T06:54:47.621Z,6.17
2018-06-25T06:57:15.970Z,6.37
2018-06-25T06:59:44.398Z,6.03
2018-06-25T07:02:12.904Z,6.17
2018-06-25T07:04:41.086Z,6.37
2018-06-25T07:07:09.849Z,6.10
2018-06-25T07:09:38.261Z,6.33
2018-06-25T07:12:06.681Z,6.50
2018-06-25T07:14:35.033Z,6.13
2018-06-25T07:17:03.366Z,6.23
2018-06-25T07:19:31.752Z,5.57
2018-06-25T07:22:00.152Z,6.10
2018-06-25T07:24:28.576Z,6.70
2018-06-25T07:26:56.977Z,5.67
2018-06-25T07:29:25.432Z,6.47
2018-06-25T07:31:54.040Z,6.67
2018-06-25T07:34:22.517Z,6.70
2018-06-25T07:36:50.913Z,5.93
2018-06-25T07:39:19.345Z,6.43
2018-06-25T07:41:47.864Z,6.23
2018-06-25T07:44:16.234Z,6.17
2018-06-25T07:46:44.656Z,5.77
2018-06-25T07:49:13.122Z,5.43
2018-06-25T07:51:41.827Z,5.80
2018-06-25T07:54:10.335Z,5.80
2018-06-25T07:56:38.765Z,6.03
2018-06-25T07:59:07.118Z,6.00
2018-06-25T08:01:35.598Z,5.83
2018-06-25T08:04:03.949Z,5.73
2018-06-25T08:06:32.399Z,5.70
2018-06-25T08:09:00.773Z,5.77
2018-06-25T08:11:29.150Z,5.70
2018-06-25T08:13:57.817Z,6.67
2018-06-25T08:16:26.187Z,5.50
2018-06-25T08:19:05.374Z,5.30
2018-06-25T08:21:33.813Z,5.77
2018-06-25T08:24:02.611Z,6.20
2018-06-25T08:26:31.056Z,6.30
2018-06-25T08:28:59.430Z,5.70
2018-06-25T08:31:27.737Z,5.97
2018-06-25T08:33:56.134Z,5.70
2018-06-25T08:36:24.542Z,5.27
2018-06-25T08:38:52.900Z,5.27
2018-06-25T08:41:22.253Z,5.57
2018-06-25T08:43:50.641Z,5.67
2018-06-25T08:46:19.032Z,6.93
2018-06-25T08:48:47.433Z,6.20
2018-06-25T08:51:15.858Z,6.20
2018-06-25T08:53:44.238Z,5.10
2018-06-25T08:56:12.650Z,6.10
2018-06-25T08:58:41.025Z,5.40
2018-06-25T09:01:09.388Z,4.83
2018-06-25T09:03:37.727Z,5.30
2018-06-25T09:06:06.081Z,5.07
2018-06-25T09:08:34.388Z,5.80
2018-06-25T09:11:02.810Z,5.00
2018-06-25T09:13:31.199Z,6.33
2018-06-25T09:15:59.844Z,6.83
2018-06-25T09:18:28.220Z,7.97
2018-06-25T09:20:56.559Z,7.50
2018-06-25T09:23:24.937Z,7.93
2018-06-25T09:25:53.259Z,8.33
2018-06-25T09:28:21.656Z,8.23
2018-06-25T09:30:49.990Z,7.20
2018-06-25T09:33:18.320Z,7.10
2018-06-25T09:35:46.673Z,6.37
2018-06-25T09:38:15.037Z,6.43
2018-06-25T09:40:43.418Z,8.00
2018-06-25T09:43:11.695Z,7.03
2018-06-25T09:45:40.093Z,8.67
2018-06-25T09:48:08.473Z,8.70
2018-06-25T09:50:36.832Z,9.43
2018-06-25T09:53:05.213Z,8.30
2018-06-25T09:55:33.526Z,7.57
2018-06-25T09:58:01.905Z,7.57
2018-06-25T10:00:35.637Z,7.90
2018-06-25T10:03:03.995Z,8.10
2018-06-25T10:05:32.327Z,7.37
2018-06-25T10:08:00.668Z,8.67
2018-06-25T10:10:29.005Z,9.90
2018-06-25T10:12:57.367Z,9.47
2018-06-25T10:15:25.782Z,9.83
2018-06-25T10:17:54.158Z,9.97
2018-06-25T10:20:22.533Z,9.83
2018-06-25T10:22:50.841Z,9.70
2018-06-25T10:25:19.167Z,8.70
2018-06-25T10:27:47.477Z,9.97
2018-06-25T10:30:15.833Z,10.63
2018-06-25T10:32:44.204Z,10.47
2018-06-25T10:35:12.548Z,10.50
2018-06-25T10:37:40.848Z,12.10
2018-06-25T10:40:08.957Z,12.23
2018-06-25T10:42:37.409Z,11.57
2018-06-25T10:45:05.696Z,10.67
2018-06-25T10:47:34.029Z,11.83
2018-06-25T10:50:02.356Z,11.60
2018-06-25T10:52:30.458Z,11.53
2018-06-25T10:54:58.874Z,10.97
2018-06-25T10:57:27.176Z,9.93
2018-06-25T10:59:55.698Z,9.50
2018-06-25T11:02:23.883Z,9.93
2018-06-25T11:04:52.203Z,10.07
2018-06-25T11:07:20.654Z,11.07
2018-06-25T11:09:48.926Z,10.00
2018-06-25T11:12:17.234Z,10.57
2018-06-25T11:14:45.620Z,9.67
2018-06-25T11:17:14.026Z,9.43
2018-06-25T11:19:42.417Z,7.53
2018-06-25T11:22:10.751Z,7.87
2018-06-25T11:24:39.079Z,8.57
2018-06-25T11:27:07.787Z,7.87
2018-06-25T11:29:35.880Z,7.53
2018-06-25T11:32:04.225Z,7.80
2018-06-25T11:34:32.605Z,7.63
2018-06-25T11:37:00.979Z,7.43
2018-06-25T11:39:29.429Z,7.57
2018-06-25T11:41:57.818Z,8.10
2018-06-25T11:44:26.236Z,7.27
2018-06-25T11:46:54.642Z,7.87
2018-06-25T11:49:23.092Z,8.07
2018-06-25T11:51:51.446Z,9.60
2018-06-25T11:54:19.777Z,8.93
2018-06-25T11:56:48.157Z,7.93
2018-06-25T11:59:16.589Z,8.80
2018-06-25T12:01:44.955Z,9.37
2018-06-25T12:04:13.417Z,10.43
2018-06-25T12:06:41.840Z,11.57
2018-06-25T12:09:11.399Z,10.20
2018-06-25T12:11:39.897Z,10.23
2018-06-25T12:14:08.327Z,10.37
2018-06-25T12:16:36.932Z,9.10
2018-06-25T12:19:05.369Z,8.53
2018-06-25T12:21:33.695Z,9.13
2018-06-25T12:24:02.352Z,9.73
2018-06-25T12:26:30.762Z,9.90
2018-06-25T12:28:59.144Z,10.30
2018-06-25T12:31:27.541Z,10.57
2018-06-25T12:33:55.917Z,10.57
2018-06-25T12:36:24.255Z,9.77
2018-06-25T12:38:52.705Z,9.40
2018-06-25T12:41:21.106Z,8.70
2018-06-25T12:43:51.433Z,9.60
2018-06-25T12:46:19.855Z,9.23
2018-06-25T12:48:48.671Z,8.43
2018-06-25T12:51:17.082Z,9.77
2018-06-25T12:53:45.526Z,10.10
2018-06-25T12:56:13.920Z,9.27
2018-06-25T12:58:42.289Z,9.97
2018-06-25T13:01:10.657Z,8.40
2018-06-25T13:03:39.079Z,8.20
2018-06-25T13:06:07.455Z,8.10
2018-06-25T13:08:35.915Z,8.70
2018-06-25T13:11:04.315Z,8.57
2018-06-25T13:13:32.685Z,8.67
2018-06-25T13:16:01.052Z,9.33
2018-06-25T13:18:29.151Z,8.37
2018-06-25T13:20:57.444Z,9.93
2018-06-25T13:23:25.773Z,8.80
2018-06-25T13:25:54.218Z,9.00
2018-06-25T13:28:22.585Z,8.33
2018-06-25T13:30:50.997Z,8.27
2018-06-25T13:33:19.441Z,9.13
2018-06-25T13:35:48.014Z,9.50
2018-06-25T13:38:16.610Z,9.43
2018-06-25T13:40:44.992Z,9.43
2018-06-25T13:43:13.351Z,9.80
2018-06-25T13:45:41.720Z,8.50
2018-06-25T13:48:10.249Z,8.87
2018-06-25T13:50:38.677Z,9.73
2018-06-25T13:53:07.069Z,9.40
2018-06-25T13:55:35.490Z,10.20
2018-06-25T13:58:03.866Z,9.57
2018-06-25T14:00:32.278Z,10.40
2018-06-25T14:03:00.691Z,9.30
2018-06-25T14:05:29.037Z,9.97
2018-06-25T14:07:57.368Z,10.00
2018-06-25T14:10:25.719Z,9.50
2018-06-25T14:12:54.062Z,8.90
2018-06-25T14:15:23.229Z,9.73
2018-06-25T14:17:51.601Z,9.83
2018-06-25T14:20:20.585Z,8.70
2018-06-25T14:22:49.275Z,9.40
2018-06-25T14:25:17.610Z,8.90
2018-06-25T14:27:51.575Z,8.60
2018-06-25T14:30:27.387Z,8.87
2018-06-25T14:33:04.225Z,8.03
2018-06-25T14:35:32.817Z,8.20
2018-06-25T14:38:01.146Z,8.63
2018-06-25T14:40:29.611Z,8.80
2018-06-25T14:42:57.987Z,8.27
2018-06-25T14:45:26.297Z,9.10
2018-06-25T14:47:54.777Z,7.77
2018-06-25T14:50:23.868Z,7.83
2018-06-25T14:52:52.468Z,6.97
2018-06-25T14:55:21.097Z,7.70
2018-06-25T14:57:49.515Z,7.10
2018-06-25T15:00:20.901Z,7.60
2018-06-25T15:02:49.956Z,6.90
2018-06-25T15:05:18.318Z,7.50
2018-06-25T15:07:46.766Z,7.33
2018-06-25T15:10:15.169Z,7.80
2018-06-25T15:12:43.483Z,7.60
2018-06-25T15:15:11.871Z,7.53
2018-06-25T15:17:40.251Z,7.10
2018-06-25T15:20:08.608Z,7.17
2018-06-25T15:22:36.972Z,7.23
2018-06-25T15:25:05.487Z,5.73
2018-06-25T15:27:33.841Z,6.37
2018-06-25T15:30:02.277Z,7.23
2018-06-25T15:32:31.982Z,5.53
2018-06-25T15:35:00.765Z,6.50
2018-06-25T15:37:29.651Z,5.13
2018-06-25T15:39:58.856Z,4.83
2018-06-25T15:42:27.258Z,5.40
2018-06-25T15:44:55.590Z,4.73
2018-06-25T15:47:23.983Z,4.83
2018-06-25T15:49:52.408Z,4.60
2018-06-25T15:52:21.563Z,4.60
2018-06-25T15:54:49.921Z,4.40
2018-06-25T15:57:18.678Z,4.43
2018-06-25T15:59:47.051Z,3.73
2018-06-25T16:02:15.446Z,3.67
2018-06-25T16:04:43.591Z,3.50
2018-06-25T16:07:11.943Z,3.53
2018-06-25T16:09:40.312Z,3.10
2018-06-25T16:12:08.695Z,2.50
2018-06-25T16:14:37.181Z,2.80
2018-06-25T16:17:05.647Z,2.43
2018-06-25T16:19:34.059Z,2.67
2018-06-25T16:22:02.624Z,3.07
2018-06-25T16:24:31.173Z,2.37
2018-06-25T16:26:59.991Z,2.10
2018-06-25T16:29:28.374Z,3.73
2018-06-25T16:31:56.954Z,2.47
2018-06-25T16:34:25.495Z,2.93
2018-06-25T16:36:54.968Z,2.83
2018-06-25T16:39:23.720Z,2.60
2018-06-25T16:41:52.124Z,2.77
2018-06-25T16:44:20.605Z,2.40
2018-06-25T16:46:48.921Z,2.40
2018-06-25T16:49:17.475Z,3.03
2018-06-25T16:51:45.813Z,3.10
2018-06-25T16:54:14.283Z,2.60
2018-06-25T16:56:42.732Z,3.37
2018-06-25T16:59:11.132Z,2.40
2018-06-25T17:01:39.494Z,2.63
2018-06-25T17:04:07.924Z,2.90
2018-06-25T17:06:36.276Z,2.53
2018-06-25T17:09:08.932Z,2.40
2018-06-25T17:11:37.260Z,2.83
2018-06-25T17:14:05.557Z,2.90
2018-06-25T17:16:33.981Z,2.60
2018-06-25T17:19:02.314Z,2.43
2018-06-25T17:21:30.644Z,2.47
2018-06-25T17:24:02.230Z,2.68
2018-06-25T17:26:30.611Z,2.30
2018-06-25T17:28:59.049Z,3.10
2018-06-25T17:31:27.422Z,3.00
2018-06-25T17:33:55.851Z,3.27
2018-06-25T17:36:24.290Z,2.80
2018-06-25T17:38:52.653Z,2.90
2018-06-25T17:41:21.045Z,2.77
2018-06-25T17:43:49.507Z,3.10
2018-06-25T17:46:17.949Z,3.13
2018-06-25T17:48:46.301Z,3.20
2018-06-25T17:51:14.667Z,3.07
2018-06-25T17:53:43.048Z,2.37
2018-06-25T17:56:11.429Z,2.87
2018-06-25T17:58:39.819Z,2.47
2018-06-25T18:01:08.154Z,2.60
2018-06-25T18:03:36.779Z,2.40
2018-06-25T18:06:05.224Z,2.60
2018-06-25T18:08:33.602Z,2.90
2018-06-25T18:11:02.316Z,2.70
2018-06-25T18:13:30.670Z,2.43
2018-06-25T18:15:59.081Z,2.30
2018-06-25T18:18:27.196Z,2.40
2018-06-25T18:20:56.079Z,2.53
2018-06-25T18:23:24.493Z,2.70
2018-06-25T18:25:52.905Z,2.43
2018-06-25T18:28:21.032Z,2.47
2018-06-25T18:30:50.540Z,2.57
2018-06-25T18:33:18.956Z,3.10
2018-06-25T18:35:47.703Z,3.20
2018-06-25T18:38:16.125Z,3.07
2018-06-25T18:40:44.453Z,3.30
2018-06-25T18:43:13.081Z,2.60
2018-06-25T18:45:41.536Z,2.83
2018-06-25T18:48:09.916Z,2.77
2018-06-25T18:50:38.600Z,3.20
2018-06-25T18:53:07.226Z,3.20
2018-06-25T18:55:35.641Z,2.97
2018-06-25T18:58:03.985Z,3.40
2018-06-25T19:00:32.683Z,3.13
2018-06-25T19:03:00.996Z,3.33
2018-06-25T19:05:29.368Z,3.30
2018-06-25T19:07:57.685Z,3.50
2018-06-25T19:10:26.018Z,3.60
2018-06-25T19:12:54.587Z,3.17
2018-06-25T19:15:24.943Z,2.93
2018-06-25T19:17:53.343Z,2.90
2018-06-25T19:20:21.727Z,2.27
2018-06-25T19:22:50.092Z,2.27
2018-06-25T19:25:18.561Z,2.30
2018-06-25T19:27:47.192Z,1.57
2018-06-25T19:30:15.554Z,1.43
2018-06-25T19:32:43.898Z,1.50
2018-06-25T19:35:12.261Z,1.43
2018-06-25T19:37:40.731Z,1.40
2018-06-25T19:40:09.165Z,1.70
2018-06-25T19:42:37.563Z,1.90
2018-06-25T19:45:06.200Z,1.90
2018-06-25T19:47:34.791Z,1.80
2018-06-25T19:50:03.240Z,1.80
2018-06-25T19:52:31.601Z,1.97
2018-06-25T19:55:00.361Z,2.10
2018-06-25T19:57:28.809Z,2.30
2018-06-25T19:59:57.768Z,2.23
2018-06-25T20:02:26.214Z,2.60
2018-06-25T20:04:54.634Z,2.37
2018-06-25T20:07:23.021Z,2.70
2018-06-25T20:09:51.445Z,2.67
2018-06-25T20:12:19.869Z,2.53
2018-06-25T20:14:48.322Z,2.57
2018-06-25T20:17:16.399Z,2.17
2018-06-25T20:19:44.880Z,2.50
2018-06-25T20:22:13.625Z,3.03
2018-06-25T20:24:42.114Z,2.00
2018-06-25T20:27:10.632Z,2.40
2018-06-25T20:29:39.339Z,2.60
2018-06-25T20:32:07.867Z,3.10
2018-06-25T20:34:36.231Z,2.60
2018-06-25T20:37:04.777Z,2.83
2018-06-25T20:39:33.169Z,3.03
2018-06-25T20:42:01.808Z,2.80
2018-06-25T20:44:31.654Z,2.97
2018-06-25T20:47:00.078Z,3.00
2018-06-25T20:49:28.475Z,3.70
2018-06-25T20:51:56.878Z,3.27
2018-06-25T20:54:25.230Z,3.70
2018-06-25T20:56:53.637Z,3.07
2018-06-25T20:59:22.033Z,4.10
2018-06-25T21:01:50.360Z,3.53
2018-06-25T21:04:18.788Z,4.03
2018-06-25T21:06:47.240Z,3.80
2018-06-25T21:09:16.142Z,3.53
2018-06-25T21:11:44.504Z,3.50
2018-06-25T21:14:13.019Z,3.70
2018-06-25T21:16:41.532Z,4.30
2018-06-25T21:19:10.205Z,3.70
2018-06-25T21:21:38.751Z,4.23
2018-06-25T21:24:07.507Z,3.90
2018-06-25T21:26:35.908Z,4.00
2018-06-25T21:29:05.700Z,4.70
2018-06-25T21:31:34.565Z,4.20
2018-06-25T21:34:03.585Z,4.37
2018-06-25T21:36:32.041Z,4.70
2018-06-25T21:39:00.717Z,4.83
2018-06-25T21:41:29.245Z,5.03
2018-06-25T21:43:58.482Z,4.70
2018-06-25T21:46:26.885Z,4.40
2018-06-25T21:48:55.392Z,4.37
2018-06-25T21:51:31.372Z,5.00
2018-06-25T21:53:59.994Z,4.57
2018-06-25T21:56:28.416Z,4.93
2018-06-25T21:58:56.892Z,4.63
2018-06-25T22:01:25.370Z,4.60
2018-06-25T22:03:53.994Z,4.83
2018-06-25T22:06:22.674Z,4.63
2018-06-25T22:08:51.053Z,4.67
2018-06-25T22:11:19.534Z,4.93
2018-06-25T22:13:49.022Z,4.50
2018-06-25T22:16:17.799Z,4.70
2018-06-25T22:18:47.606Z,4.80
2018-06-25T22:21:16.023Z,5.57
2018-06-25T22:23:44.524Z,5.30
2018-06-25T22:26:12.916Z,5.20
2018-06-25T22:28:41.361Z,5.33
2018-06-25T22:31:09.838Z,4.63
2018-06-25T22:33:38.323Z,4.63
2018-06-25T22:36:07.911Z,5.70
2018-06-25T22:38:36.327Z,5.13
2018-06-25T22:41:04.801Z,5.23
2018-06-25T22:43:33.167Z,8.30
2018-06-25T22:46:01.627Z,9.23
2018-06-25T22:48:30.026Z,9.03
2018-06-25T22:50:58.473Z,9.20
2018-06-25T22:53:26.829Z,7.83
2018-06-25T22:55:55.315Z,6.63
2018-06-25T22:58:27.363Z,5.67
2018-06-25T23:00:55.764Z,5.57
2018-06-25T23:03:24.171Z,6.33
2018-06-25T23:05:52.655Z,5.10
2018-06-25T23:08:21.048Z,5.70
2018-06-25T23:10:49.510Z,5.30
2018-06-25T23:13:18.003Z,4.87
2018-06-25T23:15:46.411Z,5.40
2018-06-25T23:18:14.942Z,4.80
2018-06-25T23:20:44.430Z,5.67
2018-06-25T23:23:12.779Z,6.27
2018-06-25T23:25:41.144Z,5.40
2018-06-25T23:28:09.747Z,5.73
2018-06-25T23:30:38.122Z,5.87
2018-06-25T23:33:06.467Z,5.60
2018-06-25T23:35:34.850Z,5.57
2018-06-25T23:38:03.330Z,5.90
2018-06-25T23:40:31.702Z,7.77
2018-06-25T23:43:16.591Z,7.43
2018-06-25T23:45:45.093Z,8.60
2018-06-25T23:48:13.700Z,8.40
2018-06-25T23:50:42.127Z,7.50
2018-06-25T23:53:10.508Z,6.73
2018-06-25T23:55:38.910Z,5.83
2018-06-25T23:58:07.023Z,6.07
